sensor_id;sensor_type;location;lat;lon;timestamp;temperature;humidity
12477;DHT22;6303;51.504;6.300;2023-02-26T00:01:30;19.70;51.70
12477;DHT22;6303;51.504;6.300;2023-02-26T00:04:00;19.70;51.70
12477;DHT22;6303;51.504;6.300;2023-02-26T00:06:30;19.70;51.80
12477;DHT22;6303;51.504;6.300;2023-02-26T00:08:57;19.70;51.80
12477;DHT22;6303;51.504;6.300;2023-02-26T00:11:24;19.70;52.10
12477;DHT22;6303;51.504;6.300;2023-02-26T00:13:53;19.70;52.00
12477;DHT22;6303;51.504;6.300;2023-02-26T00:16:26;19.80;51.80
12477;DHT22;6303;51.504;6.300;2023-02-26T00:18:54;19.80;51.60
12477;DHT22;6303;51.504;6.300;2023-02-26T00:21:23;19.80;51.60
12477;DHT22;6303;51.504;6.300;2023-02-26T00:23:51;19.80;51.60
12477;DHT22;6303;51.504;6.300;2023-02-26T00:26:18;19.70;51.70
12477;DHT22;6303;51.504;6.300;2023-02-26T00:28:46;19.70;52.10
12477;DHT22;6303;51.504;6.300;2023-02-26T00:31:17;19.70;51.70
12477;DHT22;6303;51.504;6.300;2023-02-26T00:33:46;19.70;51.50
12477;DHT22;6303;51.504;6.300;2023-02-26T00:36:20;19.60;51.50
12477;DHT22;6303;51.504;6.300;2023-02-26T00:38:58;19.60;52.20
12477;DHT22;6303;51.504;6.300;2023-02-26T00:41:28;19.70;51.90
12477;DHT22;6303;51.504;6.300;2023-02-26T00:43:56;19.80;51.70
12477;DHT22;6303;51.504;6.300;2023-02-26T00:46:32;19.90;51.60
12477;DHT22;6303;51.504;6.300;2023-02-26T00:49:10;19.90;51.10
12477;DHT22;6303;51.504;6.300;2023-02-26T00:51:43;19.90;50.50
12477;DHT22;6303;51.504;6.300;2023-02-26T00:54:17;19.90;50.20
12477;DHT22;6303;51.504;6.300;2023-02-26T00:56:45;19.90;50.10
12477;DHT22;6303;51.504;6.300;2023-02-26T00:59:12;19.90;50.60
12477;DHT22;6303;51.504;6.300;2023-02-26T01:01:40;19.90;49.90
12477;DHT22;6303;51.504;6.300;2023-02-26T01:04:08;19.90;49.80
12477;DHT22;6303;51.504;6.300;2023-02-26T01:06:41;19.90;49.90
12477;DHT22;6303;51.504;6.300;2023-02-26T01:09:15;19.90;49.80
12477;DHT22;6303;51.504;6.300;2023-02-26T01:11:43;19.90;49.90
12477;DHT22;6303;51.504;6.300;2023-02-26T01:14:11;19.80;49.80
12477;DHT22;6303;51.504;6.300;2023-02-26T01:16:46;19.80;49.80
12477;DHT22;6303;51.504;6.300;2023-02-26T01:19:19;19.80;49.80
12477;DHT22;6303;51.504;6.300;2023-02-26T01:21:54;19.80;49.80
12477;DHT22;6303;51.504;6.300;2023-02-26T01:24:23;19.80;49.80
12477;DHT22;6303;51.504;6.300;2023-02-26T01:26:52;19.80;49.80
12477;DHT22;6303;51.504;6.300;2023-02-26T01:29:19;19.70;49.80
12477;DHT22;6303;51.504;6.300;2023-02-26T01:31:54;19.70;49.80
12477;DHT22;6303;51.504;6.300;2023-02-26T01:34:28;19.80;49.80
12477;DHT22;6303;51.504;6.300;2023-02-26T01:37:01;19.70;49.70
12477;DHT22;6303;51.504;6.300;2023-02-26T01:39:35;19.70;49.70
12477;DHT22;6303;51.504;6.300;2023-02-26T01:42:11;19.70;49.70
12477;DHT22;6303;51.504;6.300;2023-02-26T01:44:44;19.70;49.70
12477;DHT22;6303;51.504;6.300;2023-02-26T01:47:20;19.70;49.70
12477;DHT22;6303;51.504;6.300;2023-02-26T01:49:49;19.70;49.70
12477;DHT22;6303;51.504;6.300;2023-02-26T01:55:28;19.60;49.70
12477;DHT22;6303;51.504;6.300;2023-02-26T01:57:57;19.60;49.70
12477;DHT22;6303;51.504;6.300;2023-02-26T02:00:26;19.60;49.70
12477;DHT22;6303;51.504;6.300;2023-02-26T02:02:54;19.60;49.70
12477;DHT22;6303;51.504;6.300;2023-02-26T02:05:24;19.60;49.70
12477;DHT22;6303;51.504;6.300;2023-02-26T02:07:53;19.60;49.70
12477;DHT22;6303;51.504;6.300;2023-02-26T02:10:23;19.60;49.70
12477;DHT22;6303;51.504;6.300;2023-02-26T02:12:57;19.60;49.70
12477;DHT22;6303;51.504;6.300;2023-02-26T02:15:34;19.50;49.70
12477;DHT22;6303;51.504;6.300;2023-02-26T02:18:12;19.50;49.70
12477;DHT22;6303;51.504;6.300;2023-02-26T02:20:56;19.50;49.70
12477;DHT22;6303;51.504;6.300;2023-02-26T02:23:29;19.50;49.60
12477;DHT22;6303;51.504;6.300;2023-02-26T02:26:38;19.50;49.60
12477;DHT22;6303;51.504;6.300;2023-02-26T02:32:17;19.50;49.70
12477;DHT22;6303;51.504;6.300;2023-02-26T02:34:50;19.50;49.70
12477;DHT22;6303;51.504;6.300;2023-02-26T02:37:22;19.50;49.70
12477;DHT22;6303;51.504;6.300;2023-02-26T02:39:55;19.50;49.80
12477;DHT22;6303;51.504;6.300;2023-02-26T02:42:28;19.50;49.70
12477;DHT22;6303;51.504;6.300;2023-02-26T02:44:58;19.40;49.80
12477;DHT22;6303;51.504;6.300;2023-02-26T02:47:30;19.50;49.80
12477;DHT22;6303;51.504;6.300;2023-02-26T02:50:05;19.40;49.80
12477;DHT22;6303;51.504;6.300;2023-02-26T02:52:41;19.40;49.80
12477;DHT22;6303;51.504;6.300;2023-02-26T02:55:13;19.40;49.80
12477;DHT22;6303;51.504;6.300;2023-02-26T02:57:46;19.40;49.80
12477;DHT22;6303;51.504;6.300;2023-02-26T03:00:15;19.40;49.70
12477;DHT22;6303;51.504;6.300;2023-02-26T03:02:50;19.50;49.70
12477;DHT22;6303;51.504;6.300;2023-02-26T03:05:18;19.50;49.60
12477;DHT22;6303;51.504;6.300;2023-02-26T03:07:49;17.80;48.80
12477;DHT22;6303;51.504;6.300;2023-02-26T03:10:17;19.40;49.60
12477;DHT22;6303;51.504;6.300;2023-02-26T03:12:44;19.40;49.60
12477;DHT22;6303;51.504;6.300;2023-02-26T03:15:12;19.50;49.60
12477;DHT22;6303;51.504;6.300;2023-02-26T03:17:49;19.40;49.60
12477;DHT22;6303;51.504;6.300;2023-02-26T03:20:24;19.40;49.60
12477;DHT22;6303;51.504;6.300;2023-02-26T03:23:02;19.40;49.60
12477;DHT22;6303;51.504;6.300;2023-02-26T03:25:39;19.40;49.60
12477;DHT22;6303;51.504;6.300;2023-02-26T03:28:16;19.40;49.60
12477;DHT22;6303;51.504;6.300;2023-02-26T03:30:51;19.40;49.60
12477;DHT22;6303;51.504;6.300;2023-02-26T03:33:27;19.40;49.70
12477;DHT22;6303;51.504;6.300;2023-02-26T03:35:58;19.40;49.70
12477;DHT22;6303;51.504;6.300;2023-02-26T03:38:32;19.40;49.70
12477;DHT22;6303;51.504;6.300;2023-02-26T03:41:04;19.40;49.60
12477;DHT22;6303;51.504;6.300;2023-02-26T03:43:36;19.40;49.70
12477;DHT22;6303;51.504;6.300;2023-02-26T03:46:12;19.30;49.70
12477;DHT22;6303;51.504;6.300;2023-02-26T03:48:42;19.30;49.70
12477;DHT22;6303;51.504;6.300;2023-02-26T03:51:11;19.30;49.60
12477;DHT22;6303;51.504;6.300;2023-02-26T03:54:03;19.30;49.70
12477;DHT22;6303;51.504;6.300;2023-02-26T03:56:38;19.30;49.60
12477;DHT22;6303;51.504;6.300;2023-02-26T03:59:29;19.30;49.60
12477;DHT22;6303;51.504;6.300;2023-02-26T04:02:40;19.30;49.70
12477;DHT22;6303;51.504;6.300;2023-02-26T04:05:17;19.30;49.70
12477;DHT22;6303;51.504;6.300;2023-02-26T04:07:47;19.30;49.70
12477;DHT22;6303;51.504;6.300;2023-02-26T04:10:18;19.30;49.70
12477;DHT22;6303;51.504;6.300;2023-02-26T04:12:46;19.30;49.80
12477;DHT22;6303;51.504;6.300;2023-02-26T04:15:14;19.30;49.70
12477;DHT22;6303;51.504;6.300;2023-02-26T04:17:41;19.30;49.80
12477;DHT22;6303;51.504;6.300;2023-02-26T04:20:09;19.30;49.70
12477;DHT22;6303;51.504;6.300;2023-02-26T04:22:38;19.20;49.70
12477;DHT22;6303;51.504;6.300;2023-02-26T04:25:06;19.30;49.70
12477;DHT22;6303;51.504;6.300;2023-02-26T04:27:34;19.30;49.70
12477;DHT22;6303;51.504;6.300;2023-02-26T04:30:02;19.30;49.70
12477;DHT22;6303;51.504;6.300;2023-02-26T04:32:31;19.20;49.60
12477;DHT22;6303;51.504;6.300;2023-02-26T04:34:58;19.20;49.70
12477;DHT22;6303;51.504;6.300;2023-02-26T04:37:26;19.20;49.70
12477;DHT22;6303;51.504;6.300;2023-02-26T04:39:54;19.20;50.30
12477;DHT22;6303;51.504;6.300;2023-02-26T04:42:21;19.20;49.70
12477;DHT22;6303;51.504;6.300;2023-02-26T04:44:48;19.20;49.80
12477;DHT22;6303;51.504;6.300;2023-02-26T04:47:15;19.20;49.70
12477;DHT22;6303;51.504;6.300;2023-02-26T04:49:43;19.20;49.70
12477;DHT22;6303;51.504;6.300;2023-02-26T04:52:10;19.20;49.70
12477;DHT22;6303;51.504;6.300;2023-02-26T04:54:38;19.20;49.70
12477;DHT22;6303;51.504;6.300;2023-02-26T04:57:08;19.20;49.70
12477;DHT22;6303;51.504;6.300;2023-02-26T04:59:36;19.20;49.70
12477;DHT22;6303;51.504;6.300;2023-02-26T05:02:03;19.20;49.70
12477;DHT22;6303;51.504;6.300;2023-02-26T05:04:32;19.20;49.70
12477;DHT22;6303;51.504;6.300;2023-02-26T05:06:59;19.20;49.70
12477;DHT22;6303;51.504;6.300;2023-02-26T05:09:26;19.10;49.60
12477;DHT22;6303;51.504;6.300;2023-02-26T05:11:53;19.10;49.60
12477;DHT22;6303;51.504;6.300;2023-02-26T05:14:22;19.10;49.60
12477;DHT22;6303;51.504;6.300;2023-02-26T05:16:50;19.10;49.60
12477;DHT22;6303;51.504;6.300;2023-02-26T05:19:17;19.10;49.60
12477;DHT22;6303;51.504;6.300;2023-02-26T05:21:46;19.10;49.60
12477;DHT22;6303;51.504;6.300;2023-02-26T05:24:14;19.10;49.60
12477;DHT22;6303;51.504;6.300;2023-02-26T05:26:41;19.10;49.60
12477;DHT22;6303;51.504;6.300;2023-02-26T05:29:08;19.10;50.20
12477;DHT22;6303;51.504;6.300;2023-02-26T05:31:36;19.10;49.60
12477;DHT22;6303;51.504;6.300;2023-02-26T05:34:04;19.10;49.60
12477;DHT22;6303;51.504;6.300;2023-02-26T05:36:31;19.10;49.60
12477;DHT22;6303;51.504;6.300;2023-02-26T05:38:58;19.10;49.60
12477;DHT22;6303;51.504;6.300;2023-02-26T05:41:25;19.10;49.60
12477;DHT22;6303;51.504;6.300;2023-02-26T05:43:52;19.10;49.60
12477;DHT22;6303;51.504;6.300;2023-02-26T05:46:19;19.10;49.60
12477;DHT22;6303;51.504;6.300;2023-02-26T05:48:47;19.10;49.70
12477;DHT22;6303;51.504;6.300;2023-02-26T05:51:14;19.10;49.70
12477;DHT22;6303;51.504;6.300;2023-02-26T05:53:41;19.10;49.60
12477;DHT22;6303;51.504;6.300;2023-02-26T05:56:08;19.10;49.70
12477;DHT22;6303;51.504;6.300;2023-02-26T05:58:35;19.10;49.60
12477;DHT22;6303;51.504;6.300;2023-02-26T06:01:02;19.10;49.60
12477;DHT22;6303;51.504;6.300;2023-02-26T06:03:29;19.10;49.60
12477;DHT22;6303;51.504;6.300;2023-02-26T06:05:58;19.10;49.60
12477;DHT22;6303;51.504;6.300;2023-02-26T06:08:25;19.10;49.60
12477;DHT22;6303;51.504;6.300;2023-02-26T06:10:52;19.10;49.60
12477;DHT22;6303;51.504;6.300;2023-02-26T06:13:19;19.10;49.60
12477;DHT22;6303;51.504;6.300;2023-02-26T06:15:48;19.10;49.60
12477;DHT22;6303;51.504;6.300;2023-02-26T06:18:16;19.00;49.50
12477;DHT22;6303;51.504;6.300;2023-02-26T06:20:43;19.10;49.60
12477;DHT22;6303;51.504;6.300;2023-02-26T06:23:12;19.00;49.50
12477;DHT22;6303;51.504;6.300;2023-02-26T06:25:40;19.10;49.50
12477;DHT22;6303;51.504;6.300;2023-02-26T06:28:07;19.00;49.50
12477;DHT22;6303;51.504;6.300;2023-02-26T06:30:34;19.10;49.60
12477;DHT22;6303;51.504;6.300;2023-02-26T06:33:02;19.10;49.50
12477;DHT22;6303;51.504;6.300;2023-02-26T06:35:29;19.10;49.50
12477;DHT22;6303;51.504;6.300;2023-02-26T06:37:56;19.10;49.50
12477;DHT22;6303;51.504;6.300;2023-02-26T06:40:24;19.10;49.40
12477;DHT22;6303;51.504;6.300;2023-02-26T06:42:51;19.10;49.30
12477;DHT22;6303;51.504;6.300;2023-02-26T06:45:19;19.10;49.40
12477;DHT22;6303;51.504;6.300;2023-02-26T06:47:46;19.10;49.40
12477;DHT22;6303;51.504;6.300;2023-02-26T06:50:13;19.10;49.40
12477;DHT22;6303;51.504;6.300;2023-02-26T06:52:40;19.10;49.50
12477;DHT22;6303;51.504;6.300;2023-02-26T06:55:08;19.10;49.60
12477;DHT22;6303;51.504;6.300;2023-02-26T06:57:36;19.20;49.70
12477;DHT22;6303;51.504;6.300;2023-02-26T07:00:05;19.20;49.60
12477;DHT22;6303;51.504;6.300;2023-02-26T07:02:32;19.30;49.40
12477;DHT22;6303;51.504;6.300;2023-02-26T07:04:59;19.50;49.30
12477;DHT22;6303;51.504;6.300;2023-02-26T07:07:26;19.60;49.10
12477;DHT22;6303;51.504;6.300;2023-02-26T07:09:54;19.70;48.80
12477;DHT22;6303;51.504;6.300;2023-02-26T07:12:21;19.80;48.60
12477;DHT22;6303;51.504;6.300;2023-02-26T07:14:49;20.00;48.40
12477;DHT22;6303;51.504;6.300;2023-02-26T07:17:16;20.10;48.20
12477;DHT22;6303;51.504;6.300;2023-02-26T07:19:46;20.30;48.00
12477;DHT22;6303;51.504;6.300;2023-02-26T07:22:13;20.40;47.70
12477;DHT22;6303;51.504;6.300;2023-02-26T07:24:40;20.50;47.50
12477;DHT22;6303;51.504;6.300;2023-02-26T07:27:08;20.60;47.20
12477;DHT22;6303;51.504;6.300;2023-02-26T07:29:35;20.80;47.10
12477;DHT22;6303;51.504;6.300;2023-02-26T07:32:04;20.90;46.90
12477;DHT22;6303;51.504;6.300;2023-02-26T07:34:32;21.00;46.70
12477;DHT22;6303;51.504;6.300;2023-02-26T07:36:59;21.00;46.60
12477;DHT22;6303;51.504;6.300;2023-02-26T07:39:26;21.10;46.90
12477;DHT22;6303;51.504;6.300;2023-02-26T07:41:53;21.20;47.20
12477;DHT22;6303;51.504;6.300;2023-02-26T07:44:21;21.20;47.40
12477;DHT22;6303;51.504;6.300;2023-02-26T07:46:48;21.30;47.70
12477;DHT22;6303;51.504;6.300;2023-02-26T07:49:16;21.40;47.80
12477;DHT22;6303;51.504;6.300;2023-02-26T07:51:43;21.40;47.70
12477;DHT22;6303;51.504;6.300;2023-02-26T07:54:11;21.50;47.70
12477;DHT22;6303;51.504;6.300;2023-02-26T07:56:39;21.60;47.60
12477;DHT22;6303;51.504;6.300;2023-02-26T07:59:08;21.60;47.50
12477;DHT22;6303;51.504;6.300;2023-02-26T08:01:35;21.70;47.40
12477;DHT22;6303;51.504;6.300;2023-02-26T08:04:03;21.80;47.30
12477;DHT22;6303;51.504;6.300;2023-02-26T08:06:31;21.80;47.10
12477;DHT22;6303;51.504;6.300;2023-02-26T08:08:59;21.90;47.20
12477;DHT22;6303;51.504;6.300;2023-02-26T08:11:26;21.90;47.10
12477;DHT22;6303;51.504;6.300;2023-02-26T08:13:53;22.00;47.10
12477;DHT22;6303;51.504;6.300;2023-02-26T08:16:20;22.00;46.90
12477;DHT22;6303;51.504;6.300;2023-02-26T08:18:47;22.10;46.90
12477;DHT22;6303;51.504;6.300;2023-02-26T08:21:14;22.10;46.80
12477;DHT22;6303;51.504;6.300;2023-02-26T08:23:43;22.20;46.80
12477;DHT22;6303;51.504;6.300;2023-02-26T08:26:11;22.20;46.80
12477;DHT22;6303;51.504;6.300;2023-02-26T08:28:39;22.30;46.70
12477;DHT22;6303;51.504;6.300;2023-02-26T08:31:06;22.30;46.60
12477;DHT22;6303;51.504;6.300;2023-02-26T08:33:33;22.40;46.50
12477;DHT22;6303;51.504;6.300;2023-02-26T08:36:00;22.40;45.70
12477;DHT22;6303;51.504;6.300;2023-02-26T08:38:28;22.50;45.50
12477;DHT22;6303;51.504;6.300;2023-02-26T08:40:56;22.50;45.30
12477;DHT22;6303;51.504;6.300;2023-02-26T08:43:23;22.60;45.30
12477;DHT22;6303;51.504;6.300;2023-02-26T08:45:51;22.60;45.10
12477;DHT22;6303;51.504;6.300;2023-02-26T08:48:19;22.60;45.10
12477;DHT22;6303;51.504;6.300;2023-02-26T08:50:47;22.70;45.00
12477;DHT22;6303;51.504;6.300;2023-02-26T08:53:14;22.70;45.50
12477;DHT22;6303;51.504;6.300;2023-02-26T08:55:41;22.80;44.80
12477;DHT22;6303;51.504;6.300;2023-02-26T08:58:10;22.80;44.70
12477;DHT22;6303;51.504;6.300;2023-02-26T09:00:37;22.90;44.70
12477;DHT22;6303;51.504;6.300;2023-02-26T09:03:04;22.90;44.60
12477;DHT22;6303;51.504;6.300;2023-02-26T09:05:31;22.90;44.40
12477;DHT22;6303;51.504;6.300;2023-02-26T09:07:58;23.00;44.30
12477;DHT22;6303;51.504;6.300;2023-02-26T09:10:26;23.00;44.30
12477;DHT22;6303;51.504;6.300;2023-02-26T09:12:53;23.00;44.20
12477;DHT22;6303;51.504;6.300;2023-02-26T09:15:21;23.10;44.10
12477;DHT22;6303;51.504;6.300;2023-02-26T09:17:48;23.10;44.10
12477;DHT22;6303;51.504;6.300;2023-02-26T09:20:16;23.10;44.00
12477;DHT22;6303;51.504;6.300;2023-02-26T09:22:43;23.20;44.00
12477;DHT22;6303;51.504;6.300;2023-02-26T09:25:10;23.20;43.70
12477;DHT22;6303;51.504;6.300;2023-02-26T09:27:37;23.30;43.60
12477;DHT22;6303;51.504;6.300;2023-02-26T09:30:06;23.30;44.10
12477;DHT22;6303;51.504;6.300;2023-02-26T09:32:34;23.30;43.50
12477;DHT22;6303;51.504;6.300;2023-02-26T09:35:02;23.30;43.30
12477;DHT22;6303;51.504;6.300;2023-02-26T09:37:30;23.40;43.40
12477;DHT22;6303;51.504;6.300;2023-02-26T09:39:57;23.40;43.30
12477;DHT22;6303;51.504;6.300;2023-02-26T09:42:36;23.40;43.20
12477;DHT22;6303;51.504;6.300;2023-02-26T09:45:12;23.40;43.00
12477;DHT22;6303;51.504;6.300;2023-02-26T09:47:49;23.40;42.90
12477;DHT22;6303;51.504;6.300;2023-02-26T09:50:21;23.50;42.90
12477;DHT22;6303;51.504;6.300;2023-02-26T09:52:54;23.50;42.90
12477;DHT22;6303;51.504;6.300;2023-02-26T09:55:27;23.50;42.80
12477;DHT22;6303;51.504;6.300;2023-02-26T09:57:58;23.50;42.60
12477;DHT22;6303;51.504;6.300;2023-02-26T10:00:31;23.60;42.70
12477;DHT22;6303;51.504;6.300;2023-02-26T10:03:14;23.60;42.50
12477;DHT22;6303;51.504;6.300;2023-02-26T10:05:49;23.50;42.40
12477;DHT22;6303;51.504;6.300;2023-02-26T10:08:21;23.60;42.40
12477;DHT22;6303;51.504;6.300;2023-02-26T10:10:59;23.60;42.40
12477;DHT22;6303;51.504;6.300;2023-02-26T10:13:35;23.60;42.30
12477;DHT22;6303;51.504;6.300;2023-02-26T10:16:06;23.60;42.10
12477;DHT22;6303;51.504;6.300;2023-02-26T10:18:39;23.60;42.00
12477;DHT22;6303;51.504;6.300;2023-02-26T10:21:10;23.60;41.90
12477;DHT22;6303;51.504;6.300;2023-02-26T10:23:41;23.60;41.80
12477;DHT22;6303;51.504;6.300;2023-02-26T10:26:18;23.70;41.70
12477;DHT22;6303;51.504;6.300;2023-02-26T10:28:53;23.70;41.60
12477;DHT22;6303;51.504;6.300;2023-02-26T10:31:26;23.70;41.50
12477;DHT22;6303;51.504;6.300;2023-02-26T10:34:07;23.80;41.50
12477;DHT22;6303;51.504;6.300;2023-02-26T10:36:43;23.80;41.40
12477;DHT22;6303;51.504;6.300;2023-02-26T10:39:20;23.80;41.20
12477;DHT22;6303;51.504;6.300;2023-02-26T10:41:48;23.80;41.10
12477;DHT22;6303;51.504;6.300;2023-02-26T10:44:21;23.90;41.10
12477;DHT22;6303;51.504;6.300;2023-02-26T10:46:56;23.90;41.00
12477;DHT22;6303;51.504;6.300;2023-02-26T10:49:35;23.90;40.90
12477;DHT22;6303;51.504;6.300;2023-02-26T10:52:12;23.90;40.80
12477;DHT22;6303;51.504;6.300;2023-02-26T10:54:46;23.90;40.80
12477;DHT22;6303;51.504;6.300;2023-02-26T10:57:22;23.90;40.70
12477;DHT22;6303;51.504;6.300;2023-02-26T10:59:50;23.90;40.80
12477;DHT22;6303;51.504;6.300;2023-02-26T11:02:35;23.90;40.80
12477;DHT22;6303;51.504;6.300;2023-02-26T11:05:06;23.90;40.80
12477;DHT22;6303;51.504;6.300;2023-02-26T11:07:36;23.90;40.70
12477;DHT22;6303;51.504;6.300;2023-02-26T11:10:05;23.90;40.70
12477;DHT22;6303;51.504;6.300;2023-02-26T11:12:38;23.90;40.60
12477;DHT22;6303;51.504;6.300;2023-02-26T11:15:10;24.00;40.60
12477;DHT22;6303;51.504;6.300;2023-02-26T11:17:38;24.00;40.60
12477;DHT22;6303;51.504;6.300;2023-02-26T11:20:15;24.00;40.50
12477;DHT22;6303;51.504;6.300;2023-02-26T11:22:46;24.00;40.40
12477;DHT22;6303;51.504;6.300;2023-02-26T11:25:17;24.00;40.40
12477;DHT22;6303;51.504;6.300;2023-02-26T11:27:47;24.00;40.30
12477;DHT22;6303;51.504;6.300;2023-02-26T11:30:16;23.90;40.40
12477;DHT22;6303;51.504;6.300;2023-02-26T11:32:44;23.90;40.40
12477;DHT22;6303;51.504;6.300;2023-02-26T11:35:14;23.90;40.40
12477;DHT22;6303;51.504;6.300;2023-02-26T11:37:46;23.90;40.30
12477;DHT22;6303;51.504;6.300;2023-02-26T11:40:16;24.00;40.30
12477;DHT22;6303;51.504;6.300;2023-02-26T11:42:48;24.00;40.20
12477;DHT22;6303;51.504;6.300;2023-02-26T11:45:18;23.90;40.30
12477;DHT22;6303;51.504;6.300;2023-02-26T11:47:46;23.90;40.40
12477;DHT22;6303;51.504;6.300;2023-02-26T11:50:18;23.80;40.30
12477;DHT22;6303;51.504;6.300;2023-02-26T11:52:54;23.70;40.30
12477;DHT22;6303;51.504;6.300;2023-02-26T11:55:26;23.60;40.50
12477;DHT22;6303;51.504;6.300;2023-02-26T11:57:55;23.60;40.40
12477;DHT22;6303;51.504;6.300;2023-02-26T12:00:26;23.60;40.40
12477;DHT22;6303;51.504;6.300;2023-02-26T12:02:58;23.60;40.30
12477;DHT22;6303;51.504;6.300;2023-02-26T12:05:27;23.50;40.40
12477;DHT22;6303;51.504;6.300;2023-02-26T12:07:54;23.50;40.40
12477;DHT22;6303;51.504;6.300;2023-02-26T12:10:26;23.50;40.40
12477;DHT22;6303;51.504;6.300;2023-02-26T12:13:06;23.40;40.40
12477;DHT22;6303;51.504;6.300;2023-02-26T12:15:38;23.40;40.50
12477;DHT22;6303;51.504;6.300;2023-02-26T12:18:42;23.30;40.60
12477;DHT22;6303;51.504;6.300;2023-02-26T12:21:24;23.20;40.60
12477;DHT22;6303;51.504;6.300;2023-02-26T12:24:25;23.10;40.80
12477;DHT22;6303;51.504;6.300;2023-02-26T12:27:02;23.10;40.90
12477;DHT22;6303;51.504;6.300;2023-02-26T12:29:53;23.10;40.90
12477;DHT22;6303;51.504;6.300;2023-02-26T12:32:43;23.20;40.70
12477;DHT22;6303;51.504;6.300;2023-02-26T12:35:41;23.30;40.70
12477;DHT22;6303;51.504;6.300;2023-02-26T12:38:27;23.30;40.60
12477;DHT22;6303;51.504;6.300;2023-02-26T12:41:31;23.30;40.50
12477;DHT22;6303;51.504;6.300;2023-02-26T12:44:13;23.30;40.50
12477;DHT22;6303;51.504;6.300;2023-02-26T12:46:53;23.30;40.40
12477;DHT22;6303;51.504;6.300;2023-02-26T12:52:37;23.30;40.40
12477;DHT22;6303;51.504;6.300;2023-02-26T12:55:17;23.20;40.50
12477;DHT22;6303;51.504;6.300;2023-02-26T12:57:56;23.10;40.60
12477;DHT22;6303;51.504;6.300;2023-02-26T13:00:54;23.10;40.70
12477;DHT22;6303;51.504;6.300;2023-02-26T13:06:46;23.00;40.80
12477;DHT22;6303;51.504;6.300;2023-02-26T13:09:23;22.90;40.80
12477;DHT22;6303;51.504;6.300;2023-02-26T13:12:10;23.00;40.90
12477;DHT22;6303;51.504;6.300;2023-02-26T13:14:49;23.00;40.90
12477;DHT22;6303;51.504;6.300;2023-02-26T13:17:26;23.00;40.60
12477;DHT22;6303;51.504;6.300;2023-02-26T13:19:56;23.00;40.70
12477;DHT22;6303;51.504;6.300;2023-02-26T13:22:28;23.00;40.70
12477;DHT22;6303;51.504;6.300;2023-02-26T13:25:00;22.90;40.80
12477;DHT22;6303;51.504;6.300;2023-02-26T13:27:32;22.90;40.90
12477;DHT22;6303;51.504;6.300;2023-02-26T13:30:13;22.90;41.10
12477;DHT22;6303;51.504;6.300;2023-02-26T13:32:44;22.80;41.20
12477;DHT22;6303;51.504;6.300;2023-02-26T13:35:20;22.80;41.30
12477;DHT22;6303;51.504;6.300;2023-02-26T13:37:50;22.70;41.30
12477;DHT22;6303;51.504;6.300;2023-02-26T13:40:38;22.70;41.40
12477;DHT22;6303;51.504;6.300;2023-02-26T13:43:22;22.60;41.50
12477;DHT22;6303;51.504;6.300;2023-02-26T13:45:58;22.60;41.50
12477;DHT22;6303;51.504;6.300;2023-02-26T13:48:35;22.60;41.50
12477;DHT22;6303;51.504;6.300;2023-02-26T13:51:09;22.60;41.60
12477;DHT22;6303;51.504;6.300;2023-02-26T13:53:52;22.60;41.60
12477;DHT22;6303;51.504;6.300;2023-02-26T13:59:48;22.40;41.80
12477;DHT22;6303;51.504;6.300;2023-02-26T14:02:46;22.40;41.80
12477;DHT22;6303;51.504;6.300;2023-02-26T14:05:33;22.40;41.80
12477;DHT22;6303;51.504;6.300;2023-02-26T14:08:21;22.30;41.90
12477;DHT22;6303;51.504;6.300;2023-02-26T14:10:55;22.30;42.00
12477;DHT22;6303;51.504;6.300;2023-02-26T14:13:29;22.30;42.00
12477;DHT22;6303;51.504;6.300;2023-02-26T14:16:02;22.20;41.90
12477;DHT22;6303;51.504;6.300;2023-02-26T14:18:40;22.20;41.90
12477;DHT22;6303;51.504;6.300;2023-02-26T14:21:34;22.20;41.80
12477;DHT22;6303;51.504;6.300;2023-02-26T14:24:05;22.20;42.00
12477;DHT22;6303;51.504;6.300;2023-02-26T14:26:44;22.10;42.50
12477;DHT22;6303;51.504;6.300;2023-02-26T14:29:15;22.10;41.80
12477;DHT22;6303;51.504;6.300;2023-02-26T14:32:03;22.10;41.80
12477;DHT22;6303;51.504;6.300;2023-02-26T14:34:33;22.10;41.90
12477;DHT22;6303;51.504;6.300;2023-02-26T14:37:03;22.10;41.90
12477;DHT22;6303;51.504;6.300;2023-02-26T14:39:35;22.00;41.90
12477;DHT22;6303;51.504;6.300;2023-02-26T14:42:05;22.00;41.90
12477;DHT22;6303;51.504;6.300;2023-02-26T14:44:36;22.00;41.90
12477;DHT22;6303;51.504;6.300;2023-02-26T14:47:06;21.90;41.90
12477;DHT22;6303;51.504;6.300;2023-02-26T14:49:36;21.90;42.00
12477;DHT22;6303;51.504;6.300;2023-02-26T14:55:43;21.80;42.10
12477;DHT22;6303;51.504;6.300;2023-02-26T14:58:31;21.80;42.20
12477;DHT22;6303;51.504;6.300;2023-02-26T15:01:09;21.70;42.10
12477;DHT22;6303;51.504;6.300;2023-02-26T15:03:59;21.70;42.10
12477;DHT22;6303;51.504;6.300;2023-02-26T15:06:50;21.70;42.30
12477;DHT22;6303;51.504;6.300;2023-02-26T15:09:24;21.60;42.90
12477;DHT22;6303;51.504;6.300;2023-02-26T15:12:17;21.60;42.30
12477;DHT22;6303;51.504;6.300;2023-02-26T15:15:05;21.60;42.30
12477;DHT22;6303;51.504;6.300;2023-02-26T15:17:56;21.60;42.40
12477;DHT22;6303;51.504;6.300;2023-02-26T15:20:32;21.50;42.50
12477;DHT22;6303;51.504;6.300;2023-02-26T15:25:56;21.50;42.80
12477;DHT22;6303;51.504;6.300;2023-02-26T15:28:26;21.50;42.70
12477;DHT22;6303;51.504;6.300;2023-02-26T15:30:55;21.40;42.70
12477;DHT22;6303;51.504;6.300;2023-02-26T15:33:24;21.40;42.80
12477;DHT22;6303;51.504;6.300;2023-02-26T15:35:55;21.40;42.80
12477;DHT22;6303;51.504;6.300;2023-02-26T15:38:22;21.40;42.80
12477;DHT22;6303;51.504;6.300;2023-02-26T15:40:52;21.30;43.10
12477;DHT22;6303;51.504;6.300;2023-02-26T15:43:22;21.30;43.00
12477;DHT22;6303;51.504;6.300;2023-02-26T15:45:52;21.30;43.30
12477;DHT22;6303;51.504;6.300;2023-02-26T15:48:24;21.20;43.70
12477;DHT22;6303;51.504;6.300;2023-02-26T15:50:56;21.00;44.00
12477;DHT22;6303;51.504;6.300;2023-02-26T15:53:29;20.30;43.90
12477;DHT22;6303;51.504;6.300;2023-02-26T15:55:58;21.00;44.30
12477;DHT22;6303;51.504;6.300;2023-02-26T15:58:35;21.00;44.20
12477;DHT22;6303;51.504;6.300;2023-02-26T16:01:03;21.00;44.20
12477;DHT22;6303;51.504;6.300;2023-02-26T16:03:34;21.00;44.20
12477;DHT22;6303;51.504;6.300;2023-02-26T16:06:05;21.00;44.10
12477;DHT22;6303;51.504;6.300;2023-02-26T16:08:32;21.00;43.90
12477;DHT22;6303;51.504;6.300;2023-02-26T16:11:00;21.00;43.90
12477;DHT22;6303;51.504;6.300;2023-02-26T16:13:29;21.00;43.90
12477;DHT22;6303;51.504;6.300;2023-02-26T16:16:03;21.00;43.80
12477;DHT22;6303;51.504;6.300;2023-02-26T16:18:33;21.00;43.80
12477;DHT22;6303;51.504;6.300;2023-02-26T16:21:03;20.90;44.10
12477;DHT22;6303;51.504;6.300;2023-02-26T16:23:42;20.80;44.50
12477;DHT22;6303;51.504;6.300;2023-02-26T16:26:14;20.90;44.70
12477;DHT22;6303;51.504;6.300;2023-02-26T16:28:44;20.90;44.60
12477;DHT22;6303;51.504;6.300;2023-02-26T16:31:17;20.90;44.70
12477;DHT22;6303;51.504;6.300;2023-02-26T16:33:53;20.90;44.70
12477;DHT22;6303;51.504;6.300;2023-02-26T16:36:23;20.90;44.70
12477;DHT22;6303;51.504;6.300;2023-02-26T16:39:01;20.90;44.80